createdAt,value
2023-05-24T00:01:25.719Z,16.71
2023-05-24T00:03:59.553Z,16.69
2023-05-24T00:06:28.500Z,16.66
2023-05-24T00:08:57.539Z,16.63
2023-05-24T00:11:27.592Z,16.61
2023-05-24T00:13:58.929Z,16.58
2023-05-24T00:16:28.137Z,16.57
2023-05-24T00:19:01.645Z,16.57
2023-05-24T00:21:31.640Z,16.54
2023-05-24T00:24:00.450Z,16.52
2023-05-24T00:26:29.079Z,16.52
2023-05-24T00:28:58.232Z,16.50
2023-05-24T00:31:34.393Z,16.48
2023-05-24T00:34:05.389Z,16.46
2023-05-24T00:36:39.041Z,16.45
2023-05-24T00:39:09.211Z,16.45
2023-05-24T00:41:37.803Z,16.45
2023-05-24T00:44:06.490Z,16.46
2023-05-24T00:46:36.421Z,16.46
2023-05-24T00:49:05.645Z,16.46
2023-05-24T00:51:41.248Z,16.45
2023-05-24T00:54:15.567Z,16.45
2023-05-24T00:56:45.125Z,16.45
2023-05-24T00:59:14.748Z,16.44
2023-05-24T01:01:50.809Z,16.43
2023-05-24T01:04:22.537Z,16.40
2023-05-24T01:07:05.157Z,16.38
2023-05-24T01:09:50.949Z,16.37
2023-05-24T01:12:46.673Z,16.37
2023-05-24T01:15:25.481Z,16.36
2023-05-24T01:18:11.406Z,16.35
2023-05-24T01:20:41.682Z,16.32
2023-05-24T01:23:39.549Z,16.31
2023-05-24T01:26:20.828Z,16.31
2023-05-24T01:28:50.864Z,16.31
2023-05-24T01:31:24.954Z,16.30
2023-05-24T01:33:53.974Z,16.27
2023-05-24T01:36:26.378Z,16.26
2023-05-24T01:38:55.615Z,16.22
2023-05-24T01:41:41.249Z,16.19
2023-05-24T01:44:19.237Z,16.17
2023-05-24T01:46:50.135Z,16.15
2023-05-24T01:49:26.115Z,16.14
2023-05-24T01:52:00.054Z,16.12
2023-05-24T01:54:33.142Z,16.09
2023-05-24T01:57:07.620Z,16.06
2023-05-24T01:59:39.750Z,16.05
2023-05-24T02:02:09.142Z,16.04
2023-05-24T02:04:39.120Z,16.02
2023-05-24T02:07:11.203Z,15.99
2023-05-24T02:09:39.893Z,15.97
2023-05-24T02:12:11.478Z,15.94
2023-05-24T02:14:44.549Z,15.92
2023-05-24T02:17:18.864Z,15.90
2023-05-24T02:19:47.654Z,15.88
2023-05-24T02:22:16.606Z,15.85
2023-05-24T02:24:49.409Z,15.82
2023-05-24T02:27:20.856Z,15.80
2023-05-24T02:29:49.659Z,15.79
2023-05-24T02:32:19.702Z,15.78
2023-05-24T02:34:48.570Z,15.75
2023-05-24T02:37:18.352Z,15.73
2023-05-24T02:39:47.181Z,15.71
2023-05-24T02:42:19.825Z,15.71
2023-05-24T02:44:51.786Z,15.69
2023-05-24T02:47:21.115Z,15.67
2023-05-24T02:49:51.215Z,15.67
2023-05-24T02:52:22.784Z,15.65
2023-05-24T02:54:54.458Z,15.62
2023-05-24T02:57:23.752Z,15.57
2023-05-24T02:59:52.806Z,15.54
2023-05-24T03:02:21.847Z,15.53
2023-05-24T03:04:53.398Z,15.53
2023-05-24T03:07:22.460Z,15.52
2023-05-24T03:09:51.361Z,15.52
2023-05-24T03:12:20.785Z,15.52
2023-05-24T03:14:50.059Z,15.51
2023-05-24T03:17:21.503Z,15.50
2023-05-24T03:19:52.088Z,15.47
2023-05-24T03:22:20.880Z,15.46
2023-05-24T03:24:49.640Z,15.46
2023-05-24T03:27:21.557Z,15.47
2023-05-24T03:29:50.736Z,15.47
2023-05-24T03:32:21.006Z,15.45
2023-05-24T03:34:49.518Z,15.45
2023-05-24T03:37:19.068Z,15.44
2023-05-24T03:39:48.343Z,15.42
2023-05-24T03:42:58.963Z,15.39
2023-05-24T03:46:01.300Z,15.37
2023-05-24T03:48:30.510Z,15.36
2023-05-24T03:51:00.914Z,15.35
2023-05-24T03:53:29.678Z,15.36
2023-05-24T03:55:58.338Z,15.38
2023-05-24T03:58:27.032Z,15.41
2023-05-24T04:01:00.638Z,15.45
2023-05-24T04:03:33.503Z,15.51
2023-05-24T04:06:02.105Z,15.57
2023-05-24T04:08:31.426Z,15.61
2023-05-24T04:10:59.922Z,15.70
2023-05-24T04:13:28.991Z,15.77
2023-05-24T04:16:00.879Z,15.86
2023-05-24T04:18:30.073Z,15.96
2023-05-24T04:20:58.952Z,16.06
2023-05-24T04:23:27.645Z,16.16
2023-05-24T04:25:56.477Z,16.26
2023-05-24T04:28:25.653Z,16.36
2023-05-24T04:31:00.190Z,16.45
2023-05-24T04:33:28.868Z,16.56
2023-05-24T04:36:00.593Z,16.68
2023-05-24T04:38:32.274Z,16.78
2023-05-24T04:41:00.834Z,16.89
2023-05-24T04:43:30.949Z,16.99
2023-05-24T04:45:59.659Z,17.08
2023-05-24T04:48:29.365Z,17.24
2023-05-24T04:50:58.486Z,17.53
2023-05-24T04:53:27.283Z,17.89
2023-05-24T04:55:56.049Z,18.95
2023-05-24T04:58:25.187Z,20.31
2023-05-24T05:01:01.557Z,21.27
2023-05-24T05:03:30.271Z,21.32
2023-05-24T05:05:59.219Z,21.86
2023-05-24T05:08:27.917Z,22.34
2023-05-24T05:10:57.145Z,22.84
2023-05-24T05:13:25.959Z,22.91
2023-05-24T05:15:59.874Z,22.66
2023-05-24T05:18:28.428Z,22.88
2023-05-24T05:20:57.931Z,23.42
2023-05-24T05:23:27.031Z,23.87
2023-05-24T05:25:58.757Z,24.03
2023-05-24T05:28:27.766Z,23.93
2023-05-24T05:31:00.645Z,23.80
2023-05-24T05:33:31.959Z,23.62
2023-05-24T05:36:00.693Z,23.66
2023-05-24T05:38:30.638Z,24.23
2023-05-24T05:40:59.208Z,24.96
2023-05-24T05:43:28.712Z,25.69
2023-05-24T05:46:01.911Z,26.42
2023-05-24T05:48:30.742Z,26.92
2023-05-24T05:50:59.365Z,27.36
2023-05-24T05:53:28.218Z,27.55
2023-05-24T05:55:58.250Z,27.82
2023-05-24T05:58:27.019Z,27.91
2023-05-24T06:01:03.308Z,28.08
2023-05-24T06:03:33.413Z,28.17
2023-05-24T06:06:02.434Z,27.75
2023-05-24T06:08:34.418Z,26.75
2023-05-24T06:11:03.159Z,25.77
2023-05-24T06:13:32.520Z,25.08
2023-05-24T06:16:01.363Z,24.63
2023-05-24T06:18:32.113Z,24.39
2023-05-24T06:21:00.714Z,24.20
2023-05-24T06:23:29.406Z,23.93
2023-05-24T06:25:58.414Z,23.60
2023-05-24T06:28:27.668Z,23.40
2023-05-24T06:31:00.528Z,23.17
2023-05-24T06:33:31.124Z,23.05
2023-05-24T06:35:59.674Z,22.98
2023-05-24T06:38:28.759Z,22.93
2023-05-24T06:40:57.748Z,22.96
2023-05-24T06:43:27.563Z,22.89
2023-05-24T06:46:03.337Z,22.79
2023-05-24T06:48:32.071Z,22.79
2023-05-24T06:51:01.054Z,22.78
2023-05-24T06:53:30.179Z,22.69
2023-05-24T06:55:59.253Z,22.61
2023-05-24T06:58:28.126Z,22.58
2023-05-24T07:01:00.087Z,22.56
2023-05-24T07:03:30.393Z,22.51
2023-05-24T07:05:59.226Z,22.42
2023-05-24T07:08:30.180Z,22.43
2023-05-24T07:10:58.992Z,22.43
2023-05-24T07:13:27.859Z,22.46
2023-05-24T07:16:04.466Z,22.46
2023-05-24T07:18:33.117Z,22.41
2023-05-24T07:21:02.137Z,22.40
2023-05-24T07:23:31.882Z,22.32
2023-05-24T07:26:00.791Z,22.32
2023-05-24T07:28:29.815Z,22.36
2023-05-24T07:31:02.130Z,22.39
2023-05-24T07:33:33.427Z,22.37
2023-05-24T07:36:02.975Z,22.35
2023-05-24T07:38:31.754Z,22.29
2023-05-24T07:41:02.811Z,22.35
2023-05-24T07:43:31.787Z,22.49
2023-05-24T07:46:03.196Z,22.62
2023-05-24T07:48:32.152Z,22.77
2023-05-24T07:51:00.855Z,22.87
2023-05-24T07:53:29.859Z,22.82
2023-05-24T07:55:58.441Z,22.80
2023-05-24T07:58:27.297Z,22.85
2023-05-24T08:01:02.471Z,22.95
2023-05-24T08:03:31.915Z,23.10
2023-05-24T08:06:01.453Z,23.22
2023-05-24T08:08:30.120Z,23.30
2023-05-24T08:10:58.817Z,23.39
2023-05-24T08:13:27.849Z,23.45
2023-05-24T08:16:02.381Z,23.45
2023-05-24T08:18:31.080Z,23.42
2023-05-24T08:20:59.639Z,23.49
2023-05-24T08:23:29.412Z,23.59
2023-05-24T08:25:58.360Z,23.65
2023-05-24T08:28:27.792Z,23.69
2023-05-24T08:31:02.021Z,23.80
2023-05-24T08:33:30.884Z,23.90
2023-05-24T08:35:59.634Z,23.97
2023-05-24T08:38:29.488Z,24.06
2023-05-24T08:40:58.174Z,24.10
2023-05-24T08:43:30.106Z,24.12
2023-05-24T08:46:04.094Z,24.10
2023-05-24T08:48:41.938Z,23.96
2023-05-24T08:51:09.869Z,23.85
2023-05-24T08:53:41.572Z,23.69
2023-05-24T08:56:10.734Z,23.60
2023-05-24T08:58:39.558Z,23.51
2023-05-24T09:01:08.899Z,23.38
2023-05-24T09:03:40.321Z,23.26
2023-05-24T09:06:11.663Z,23.17
2023-05-24T09:08:43.862Z,23.05
2023-05-24T09:11:16.374Z,22.93
2023-05-24T09:13:47.902Z,22.79
2023-05-24T09:16:17.007Z,22.66
2023-05-24T09:18:46.058Z,22.60
2023-05-24T09:21:14.749Z,22.54
2023-05-24T09:23:44.685Z,22.53
2023-05-24T09:26:13.973Z,22.54
2023-05-24T09:28:43.705Z,22.52
2023-05-24T09:31:13.264Z,22.55
2023-05-24T09:33:42.271Z,22.59
2023-05-24T09:36:12.156Z,22.62
2023-05-24T09:38:41.712Z,22.64
2023-05-24T09:41:10.803Z,22.68
2023-05-24T09:43:49.307Z,22.71
2023-05-24T09:46:22.580Z,22.80
2023-05-24T09:48:58.745Z,22.92
2023-05-24T09:51:27.451Z,23.02
2023-05-24T09:54:00.725Z,23.10
2023-05-24T09:56:30.466Z,23.13
2023-05-24T09:59:05.130Z,23.13
2023-05-24T10:01:35.369Z,23.15
2023-05-24T10:04:09.293Z,23.21
2023-05-24T10:06:39.556Z,23.29
2023-05-24T10:09:11.017Z,23.35
2023-05-24T10:11:41.231Z,23.37
2023-05-24T10:14:10.973Z,23.39
2023-05-24T10:16:40.246Z,23.38
2023-05-24T10:19:09.554Z,23.42
2023-05-24T10:21:41.514Z,23.52
2023-05-24T10:24:12.598Z,23.64
2023-05-24T10:26:42.377Z,23.73
2023-05-24T10:29:24.967Z,23.82
2023-05-24T10:31:54.843Z,23.86
2023-05-24T10:34:25.142Z,23.89
2023-05-24T10:36:54.143Z,23.97
2023-05-24T10:39:25.104Z,24.07
2023-05-24T10:41:56.870Z,24.17
2023-05-24T10:44:30.175Z,24.22
2023-05-24T10:47:12.456Z,24.35
2023-05-24T10:49:50.746Z,24.48
2023-05-24T10:52:20.989Z,24.66
2023-05-24T10:55:08.977Z,24.82
2023-05-24T10:57:37.773Z,25.00
2023-05-24T11:03:04.259Z,25.65
2023-05-24T11:05:36.341Z,25.93
2023-05-24T11:08:08.897Z,26.12
2023-05-24T11:10:38.273Z,26.26
2023-05-24T11:13:08.993Z,26.47
2023-05-24T11:15:37.940Z,26.74
2023-05-24T11:18:16.800Z,26.95
2023-05-24T11:20:46.374Z,27.03
2023-05-24T11:23:17.317Z,27.09
2023-05-24T11:25:47.606Z,27.23
2023-05-24T11:28:16.986Z,27.44
2023-05-24T11:30:47.381Z,27.69
2023-05-24T11:33:18.107Z,27.97
2023-05-24T11:35:49.969Z,28.23
2023-05-24T11:38:22.197Z,28.38
2023-05-24T11:40:53.148Z,28.55
2023-05-24T11:43:23.182Z,28.82
2023-05-24T11:45:52.961Z,29.05
2023-05-24T11:48:24.830Z,29.26
2023-05-24T11:50:55.657Z,29.27
2023-05-24T11:53:24.803Z,29.35
2023-05-24T11:55:57.234Z,29.33
2023-05-24T11:58:34.517Z,29.32
2023-05-24T12:01:03.555Z,29.34
2023-05-24T12:03:33.316Z,29.38
2023-05-24T12:06:02.339Z,29.34
2023-05-24T12:08:31.703Z,29.39
2023-05-24T12:11:02.308Z,29.44
2023-05-24T12:13:30.945Z,29.57
2023-05-24T12:16:02.664Z,29.63
2023-05-24T12:18:31.635Z,29.76
2023-05-24T12:21:00.290Z,29.83
2023-05-24T12:23:31.531Z,29.84
2023-05-24T12:26:00.585Z,29.68
2023-05-24T12:28:35.612Z,29.38
2023-05-24T12:31:06.685Z,29.29
2023-05-24T12:33:35.635Z,29.44
2023-05-24T12:36:04.932Z,29.53
2023-05-24T12:38:33.415Z,29.32
2023-05-24T12:43:33.673Z,29.26
2023-05-24T12:46:02.820Z,29.29
2023-05-24T12:48:31.431Z,29.06
2023-05-24T12:51:00.169Z,28.91
2023-05-24T12:53:29.083Z,28.77
2023-05-24T12:55:59.822Z,28.60
2023-05-24T12:58:28.615Z,28.25
2023-05-24T13:01:00.357Z,28.00
2023-05-24T13:03:28.967Z,27.88
2023-05-24T13:05:59.362Z,27.90
2023-05-24T13:08:29.000Z,27.87
2023-05-24T13:10:57.573Z,27.89
2023-05-24T13:13:28.025Z,28.03
2023-05-24T13:16:05.092Z,28.16
2023-05-24T13:18:33.157Z,28.15
2023-05-24T13:21:04.862Z,27.91
2023-05-24T13:23:35.693Z,27.71
2023-05-24T13:26:06.462Z,27.54
2023-05-24T13:28:35.907Z,27.34
2023-05-24T13:31:05.759Z,27.18
2023-05-24T13:33:34.712Z,27.09
2023-05-24T13:36:03.312Z,27.05
2023-05-24T13:38:31.809Z,26.99
2023-05-24T13:41:00.720Z,27.03
2023-05-24T13:43:29.447Z,27.20
2023-05-24T13:45:59.861Z,27.40
2023-05-24T13:48:28.752Z,27.56
2023-05-24T13:50:57.560Z,27.71
2023-05-24T13:53:27.642Z,27.70
2023-05-24T13:55:57.186Z,27.48
2023-05-24T13:58:26.290Z,27.25
2023-05-24T14:01:03.096Z,27.05
2023-05-24T14:03:31.718Z,26.83
2023-05-24T14:06:01.080Z,26.71
2023-05-24T14:08:29.722Z,26.61
2023-05-24T14:10:58.404Z,26.59
2023-05-24T14:14:16.665Z,26.60
2023-05-24T14:16:16.125Z,26.64
2023-05-24T14:18:45.205Z,26.58
2023-05-24T14:21:13.858Z,26.49
2023-05-24T14:23:42.447Z,26.35
2023-05-24T14:26:11.153Z,26.32
2023-05-24T14:28:39.812Z,26.34
2023-05-24T14:31:08.411Z,26.39
2023-05-24T14:33:37.956Z,26.46
2023-05-24T14:36:08.125Z,26.48
2023-05-24T14:38:36.655Z,26.57
2023-05-24T14:41:06.121Z,26.70
2023-05-24T14:43:36.049Z,26.71
2023-05-24T14:46:05.753Z,26.64
2023-05-24T14:48:34.824Z,26.59
2023-05-24T14:51:03.532Z,26.38
2023-05-24T14:53:32.242Z,26.15
2023-05-24T14:56:03.281Z,25.91
2023-05-24T14:58:31.870Z,25.65
2023-05-24T15:01:02.284Z,25.37
2023-05-24T15:03:31.206Z,25.11
2023-05-24T15:06:01.293Z,24.81
2023-05-24T15:08:30.234Z,24.49
2023-05-24T15:11:00.968Z,24.19
2023-05-24T15:13:30.622Z,23.91
2023-05-24T15:16:01.156Z,23.61
2023-05-24T15:18:31.535Z,23.07
2023-05-24T15:21:04.569Z,22.49
2023-05-24T15:23:33.317Z,22.01
2023-05-24T15:26:02.146Z,21.66
2023-05-24T15:28:30.685Z,21.48
2023-05-24T15:31:03.197Z,21.43
2023-05-24T15:33:32.504Z,21.34
2023-05-24T15:36:01.266Z,21.26
2023-05-24T15:38:29.797Z,21.11
2023-05-24T15:40:59.392Z,21.02
2023-05-24T15:43:29.444Z,20.98
2023-05-24T15:46:01.376Z,20.96
2023-05-24T15:48:30.353Z,20.97
2023-05-24T15:51:53.816Z,20.99
2023-05-24T15:53:48.941Z,21.00
2023-05-24T15:56:17.614Z,20.98
2023-05-24T15:58:46.212Z,20.91
2023-05-24T16:01:16.316Z,20.89
2023-05-24T16:03:45.290Z,20.85
2023-05-24T16:06:14.107Z,20.74
2023-05-24T16:08:43.375Z,20.64
2023-05-24T16:11:12.866Z,20.53
2023-05-24T16:13:41.506Z,20.44
2023-05-24T16:16:10.691Z,20.41
2023-05-24T16:18:39.894Z,20.37
2023-05-24T16:21:11.292Z,20.29
2023-05-24T16:23:40.754Z,20.22
2023-05-24T16:26:10.159Z,20.17
2023-05-24T16:28:38.937Z,20.14
2023-05-24T16:31:07.821Z,20.10
2023-05-24T16:33:36.989Z,20.04
2023-05-24T16:36:06.092Z,19.99
2023-05-24T16:38:35.056Z,19.95
2023-05-24T16:41:05.518Z,19.95
2023-05-24T16:43:34.398Z,19.92
2023-05-24T16:46:03.357Z,19.87
2023-05-24T16:48:32.071Z,19.80
2023-05-24T16:51:01.716Z,19.72
2023-05-24T16:53:33.055Z,19.64
2023-05-24T16:56:03.470Z,19.51
2023-05-24T16:58:32.108Z,19.42
2023-05-24T17:01:01.278Z,19.34
2023-05-24T17:03:32.328Z,19.27
2023-05-24T17:06:03.911Z,19.21
2023-05-24T17:08:34.614Z,19.17
2023-05-24T17:11:03.753Z,19.08
2023-05-24T17:13:32.691Z,19.05
2023-05-24T17:16:04.205Z,19.03
2023-05-24T17:18:33.048Z,18.99
2023-05-24T17:21:05.482Z,18.97
2023-05-24T17:23:36.851Z,18.94
2023-05-24T17:26:08.346Z,18.90
2023-05-24T17:28:37.128Z,18.86
2023-05-24T17:31:08.465Z,18.82
2023-05-24T17:33:37.252Z,18.77
2023-05-24T17:36:06.259Z,18.72
2023-05-24T17:38:37.145Z,18.66
2023-05-24T17:41:08.709Z,18.56
2023-05-24T17:43:39.437Z,18.45
2023-05-24T17:46:09.341Z,18.35
2023-05-24T17:48:39.975Z,18.25
2023-05-24T17:51:10.034Z,18.15
2023-05-24T17:53:43.041Z,18.04
2023-05-24T17:56:14.060Z,17.96
2023-05-24T17:58:45.518Z,17.86
2023-05-24T18:01:16.993Z,17.76
2023-05-24T18:03:45.877Z,17.69
2023-05-24T18:06:14.963Z,17.59
2023-05-24T18:08:44.727Z,17.52
2023-05-24T18:11:15.114Z,17.44
2023-05-24T18:13:46.419Z,17.36
2023-05-24T18:16:16.381Z,17.31
2023-05-24T18:18:46.145Z,17.23
2023-05-24T18:21:15.881Z,17.14
2023-05-24T18:23:46.025Z,17.07
2023-05-24T18:26:15.693Z,16.98
2023-05-24T18:28:45.592Z,16.91
2023-05-24T18:31:20.007Z,16.83
2023-05-24T18:33:49.907Z,16.76
2023-05-24T18:36:18.652Z,16.68
2023-05-24T18:38:47.332Z,16.64
2023-05-24T18:41:16.836Z,16.61
2023-05-24T18:43:46.625Z,16.57
2023-05-24T18:46:16.712Z,16.51
2023-05-24T18:48:45.860Z,16.46
2023-05-24T18:51:16.369Z,16.40
2023-05-24T18:53:45.058Z,16.35
2023-05-24T18:56:14.392Z,16.32
2023-05-24T18:58:45.774Z,16.30
2023-05-24T19:01:18.734Z,16.28
2023-05-24T19:03:48.527Z,16.26
2023-05-24T19:06:17.594Z,16.24
2023-05-24T19:08:46.419Z,16.21
2023-05-24T19:11:16.126Z,16.17
2023-05-24T19:13:44.927Z,16.14
2023-05-24T19:16:16.862Z,16.11
2023-05-24T19:18:45.842Z,16.06
2023-05-24T19:21:14.981Z,16.00
2023-05-24T19:23:45.800Z,15.97
2023-05-24T19:26:17.464Z,15.96
2023-05-24T19:28:50.052Z,15.93
2023-05-24T19:31:19.924Z,15.90
2023-05-24T19:34:00.041Z,15.86
2023-05-24T19:36:32.359Z,15.83
2023-05-24T19:39:01.356Z,15.79
2023-05-24T19:41:30.563Z,15.76
2023-05-24T19:44:00.287Z,15.71
2023-05-24T19:46:30.035Z,15.64
2023-05-24T19:48:58.968Z,15.60
2023-05-24T19:51:28.098Z,15.56
2023-05-24T19:53:57.600Z,15.52
2023-05-24T19:56:28.819Z,15.48
2023-05-24T19:59:00.891Z,15.43
2023-05-24T20:01:30.226Z,15.39
2023-05-24T20:03:59.392Z,15.38
2023-05-24T20:06:29.128Z,15.35
2023-05-24T20:08:59.266Z,15.28
2023-05-24T20:11:29.379Z,15.21
2023-05-24T20:13:58.521Z,15.17
2023-05-24T20:16:29.428Z,15.13
2023-05-24T20:18:58.375Z,15.10
2023-05-24T20:21:27.926Z,15.08
2023-05-24T20:23:58.817Z,15.04
2023-05-24T20:26:52.705Z,15.02
2023-05-24T20:29:26.623Z,15.01
2023-05-24T20:31:56.023Z,14.98
2023-05-24T20:34:25.702Z,14.95
2023-05-24T20:36:54.861Z,14.93
2023-05-24T20:39:27.614Z,14.86
2023-05-24T20:41:58.560Z,14.81
2023-05-24T20:44:27.659Z,14.75
2023-05-24T20:47:00.407Z,14.67
2023-05-24T20:49:29.325Z,14.64
2023-05-24T20:52:02.331Z,14.63
2023-05-24T20:54:31.698Z,14.62
2023-05-24T20:57:01.819Z,14.60
2023-05-24T20:59:36.645Z,14.57
2023-05-24T21:02:06.829Z,14.58
2023-05-24T21:04:39.334Z,14.60
2023-05-24T21:07:08.687Z,14.61
2023-05-24T21:09:40.325Z,14.62
2023-05-24T21:12:09.392Z,14.62
2023-05-24T21:14:41.146Z,14.60
2023-05-24T21:17:09.946Z,14.60
2023-05-24T21:19:39.130Z,14.61
2023-05-24T21:22:08.020Z,14.58
2023-05-24T21:24:36.766Z,14.52
2023-05-24T21:27:07.337Z,14.45
2023-05-24T21:29:37.458Z,14.42
2023-05-24T21:32:07.103Z,14.40
2023-05-24T21:34:36.202Z,14.38
2023-05-24T21:37:06.627Z,14.38
2023-05-24T21:39:35.284Z,14.37
2023-05-24T21:42:04.721Z,14.37
2023-05-24T21:44:34.185Z,14.34
2023-05-24T21:47:03.670Z,14.32
2023-05-24T21:49:32.640Z,14.33
2023-05-24T21:52:02.400Z,14.30
2023-05-24T21:54:31.051Z,14.26
2023-05-24T21:57:00.931Z,14.22
2023-05-24T21:59:29.741Z,14.21
2023-05-24T22:01:58.950Z,14.18
2023-05-24T22:04:27.805Z,14.16
2023-05-24T22:06:57.001Z,14.18
2023-05-24T22:09:25.818Z,14.21
2023-05-24T22:11:54.636Z,14.26
2023-05-24T22:14:26.536Z,14.24
2023-05-24T22:16:55.456Z,14.19
2023-05-24T22:19:39.531Z,14.15
2023-05-24T22:22:09.907Z,14.08
2023-05-24T22:24:38.625Z,14.02
2023-05-24T22:27:09.095Z,13.97
2023-05-24T22:29:37.893Z,13.95
2023-05-24T22:32:08.321Z,13.91
2023-05-24T22:34:37.165Z,13.89
2023-05-24T22:37:06.632Z,13.89
2023-05-24T22:39:35.302Z,13.85
2023-05-24T22:42:05.336Z,13.84
2023-05-24T22:44:33.961Z,13.84
2023-05-24T22:47:02.905Z,13.86
2023-05-24T22:49:34.436Z,13.87
2023-05-24T22:52:05.326Z,13.87
2023-05-24T22:54:36.781Z,13.84
2023-05-24T22:57:08.947Z,13.78
2023-05-24T22:59:37.583Z,13.76
2023-05-24T23:02:09.344Z,13.70
2023-05-24T23:04:38.050Z,13.66
2023-05-24T23:07:07.892Z,13.64
2023-05-24T23:09:36.635Z,13.62
2023-05-24T23:12:08.201Z,13.62
2023-05-24T23:14:42.308Z,13.62
2023-05-24T23:17:13.695Z,13.56
2023-05-24T23:19:45.119Z,13.52
2023-05-24T23:22:17.670Z,13.47
2023-05-24T23:24:50.360Z,13.46
2023-05-24T23:27:20.282Z,13.47
2023-05-24T23:29:51.568Z,13.41
2023-05-24T23:32:20.969Z,13.40
2023-05-24T23:34:50.552Z,13.41
2023-05-24T23:37:19.550Z,13.40
2023-05-24T23:39:48.326Z,13.38
2023-05-24T23:42:17.198Z,13.34
2023-05-24T23:44:45.919Z,13.29
2023-05-24T23:47:14.711Z,13.21
2023-05-24T23:49:44.267Z,13.16
2023-05-24T23:52:15.467Z,13.09
2023-05-24T23:54:44.071Z,13.04
2023-05-24T23:57:14.602Z,12.98
2023-05-24T23:59:43.197Z,12.92
